sensor_id;sensor_type;location;lat;lon;timestamp;pressure;altitude;pressure_sealevel;temperature;humidity
56912;BME280;42800;53.928;27.662;2023-01-31T00:01:30;97646.47;;;1.27;100.00
56912;BME280;42800;53.928;27.662;2023-01-31T00:03:59;97652.78;;;1.59;100.00
56912;BME280;42800;53.928;27.662;2023-01-31T00:06:28;97652.31;;;1.70;100.00
56912;BME280;42800;53.928;27.662;2023-01-31T00:08:56;97657.88;;;1.89;100.00
56912;BME280;42800;53.928;27.662;2023-01-31T00:11:23;97646.47;;;1.68;100.00
56912;BME280;42800;53.928;27.662;2023-01-31T00:13:52;97647.75;;;1.58;100.00
56912;BME280;42800;53.928;27.662;2023-01-31T00:16:19;97628.47;;;1.31;100.00
56912;BME280;42800;53.928;27.662;2023-01-31T00:18:46;97643.69;;;1.52;100.00
56912;BME280;42800;53.928;27.662;2023-01-31T00:21:13;97640.66;;;1.53;100.00
56912;BME280;42800;53.928;27.662;2023-01-31T00:23:42;97649.84;;;1.64;100.00
56912;BME280;42800;53.928;27.662;2023-01-31T00:26:10;97643.03;;;1.55;100.00
56912;BME280;42800;53.928;27.662;2023-01-31T00:28:36;97635.63;;;1.39;100.00
56912;BME280;42800;53.928;27.662;2023-01-31T00:31:03;97641.88;;;1.56;100.00
56912;BME280;42800;53.928;27.662;2023-01-31T00:33:29;97638.88;;;1.45;100.00
56912;BME280;42800;53.928;27.662;2023-01-31T00:35:56;97645.22;;;1.25;100.00
56912;BME280;42800;53.928;27.662;2023-01-31T00:38:22;97659.09;;;1.11;100.00
56912;BME280;42800;53.928;27.662;2023-01-31T00:40:51;97651.72;;;1.36;100.00
56912;BME280;42800;53.928;27.662;2023-01-31T00:43:17;97651.41;;;1.25;100.00
56912;BME280;42800;53.928;27.662;2023-01-31T00:45:44;97655.09;;;1.33;100.00
56912;BME280;42800;53.928;27.662;2023-01-31T00:48:10;97644.06;;;1.50;100.00
56912;BME280;42800;53.928;27.662;2023-01-31T00:50:36;97646.91;;;1.29;100.00
56912;BME280;42800;53.928;27.662;2023-01-31T00:53:02;97647.53;;;1.51;100.00
56912;BME280;42800;53.928;27.662;2023-01-31T00:55:29;97643.88;;;1.71;100.00
56912;BME280;42800;53.928;27.662;2023-01-31T00:57:56;97658.88;;;1.56;100.00
56912;BME280;42800;53.928;27.662;2023-01-31T01:00:22;97653.94;;;1.58;100.00
56912;BME280;42800;53.928;27.662;2023-01-31T01:02:48;97653.66;;;1.35;100.00
56912;BME280;42800;53.928;27.662;2023-01-31T01:05:15;97657.38;;;1.31;100.00
56912;BME280;42800;53.928;27.662;2023-01-31T01:07:41;97667.03;;;1.44;100.00
56912;BME280;42800;53.928;27.662;2023-01-31T01:10:08;97659.13;;;1.51;100.00
56912;BME280;42800;53.928;27.662;2023-01-31T01:12:35;97659.03;;;1.35;100.00
56912;BME280;42800;53.928;27.662;2023-01-31T01:15:02;97655.06;;;1.57;100.00
56912;BME280;42800;53.928;27.662;2023-01-31T01:17:28;97652.50;;;1.49;100.00
56912;BME280;42800;53.928;27.662;2023-01-31T01:19:54;97645.41;;;1.44;100.00
56912;BME280;42800;53.928;27.662;2023-01-31T01:22:21;97641.03;;;1.39;100.00
56912;BME280;42800;53.928;27.662;2023-01-31T01:24:47;97645.09;;;1.74;100.00
56912;BME280;42800;53.928;27.662;2023-01-31T01:27:13;97654.81;;;1.62;100.00
56912;BME280;42800;53.928;27.662;2023-01-31T01:29:39;97648.72;;;1.65;100.00
56912;BME280;42800;53.928;27.662;2023-01-31T01:32:06;97637.13;;;1.65;100.00
56912;BME280;42800;53.928;27.662;2023-01-31T01:34:33;97645.41;;;1.44;100.00
56912;BME280;42800;53.928;27.662;2023-01-31T01:37:00;97643.16;;;1.46;100.00
56912;BME280;42800;53.928;27.662;2023-01-31T01:39:36;97646.78;;;1.78;100.00
56912;BME280;42800;53.928;27.662;2023-01-31T01:42:02;97642.91;;;1.63;100.00
56912;BME280;42800;53.928;27.662;2023-01-31T01:44:44;97645.88;;;1.74;100.00
56912;BME280;42800;53.928;27.662;2023-01-31T01:47:14;97649.56;;;1.82;100.00
56912;BME280;42800;53.928;27.662;2023-01-31T01:49:43;97642.03;;;1.47;100.00
56912;BME280;42800;53.928;27.662;2023-01-31T01:52:14;97636.09;;;1.41;100.00
56912;BME280;42800;53.928;27.662;2023-01-31T01:54:43;97646.88;;;1.41;100.00
56912;BME280;42800;53.928;27.662;2023-01-31T01:57:15;97643.09;;;1.30;100.00
56912;BME280;42800;53.928;27.662;2023-01-31T01:59:44;97638.81;;;1.29;100.00
56912;BME280;42800;53.928;27.662;2023-01-31T02:02:13;97653.44;;;1.28;100.00
56912;BME280;42800;53.928;27.662;2023-01-31T02:04:41;97659.72;;;1.32;100.00
56912;BME280;42800;53.928;27.662;2023-01-31T02:07:09;97665.38;;;1.27;100.00
56912;BME280;42800;53.928;27.662;2023-01-31T02:09:41;97671.50;;;1.52;100.00
56912;BME280;42800;53.928;27.662;2023-01-31T02:12:11;97680.16;;;1.58;100.00
56912;BME280;42800;53.928;27.662;2023-01-31T02:14:37;97666.47;;;1.38;100.00
56912;BME280;42800;53.928;27.662;2023-01-31T02:17:04;97659.19;;;1.67;100.00
56912;BME280;42800;53.928;27.662;2023-01-31T02:19:39;97657.00;;;1.45;100.00
56912;BME280;42800;53.928;27.662;2023-01-31T02:22:16;97657.34;;;1.43;100.00
56912;BME280;42800;53.928;27.662;2023-01-31T02:28:11;97668.78;;;1.52;100.00
56912;BME280;42800;53.928;27.662;2023-01-31T02:31:24;97659.22;;;1.55;100.00
56912;BME280;42800;53.928;27.662;2023-01-31T02:33:58;97656.66;;;1.46;100.00
56912;BME280;42800;53.928;27.662;2023-01-31T02:36:35;97662.34;;;1.69;100.00
56912;BME280;42800;53.928;27.662;2023-01-31T02:39:12;97647.16;;;1.24;100.00
56912;BME280;42800;53.928;27.662;2023-01-31T02:41:48;97653.31;;;1.37;100.00
56912;BME280;42800;53.928;27.662;2023-01-31T02:44:21;97661.44;;;1.65;100.00
56912;BME280;42800;53.928;27.662;2023-01-31T02:47:14;97662.13;;;1.62;100.00
56912;BME280;42800;53.928;27.662;2023-01-31T02:49:48;97656.34;;;1.35;100.00
56912;BME280;42800;53.928;27.662;2023-01-31T02:52:20;97662.88;;;1.47;100.00
56912;BME280;42800;53.928;27.662;2023-01-31T02:54:58;97657.72;;;1.70;100.00
56912;BME280;42800;53.928;27.662;2023-01-31T02:57:44;97664.50;;;1.63;100.00
56912;BME280;42800;53.928;27.662;2023-01-31T03:00:12;97667.69;;;1.41;100.00
56912;BME280;42800;53.928;27.662;2023-01-31T03:02:39;97671.50;;;1.52;100.00
56912;BME280;42800;53.928;27.662;2023-01-31T03:05:07;97675.91;;;1.45;100.00
56912;BME280;42800;53.928;27.662;2023-01-31T03:07:33;97674.88;;;1.49;100.00
56912;BME280;42800;53.928;27.662;2023-01-31T03:10:11;97668.88;;;1.68;100.00
56912;BME280;42800;53.928;27.662;2023-01-31T03:12:48;97670.41;;;1.41;100.00
56912;BME280;42800;53.928;27.662;2023-01-31T03:15:27;97671.06;;;1.50;100.00
56912;BME280;42800;53.928;27.662;2023-01-31T03:18:18;97682.72;;;1.14;100.00
56912;BME280;42800;53.928;27.662;2023-01-31T03:20:52;97692.31;;;1.52;100.00
56912;BME280;42800;53.928;27.662;2023-01-31T03:23:23;97692.56;;;1.47;100.00
56912;BME280;42800;53.928;27.662;2023-01-31T03:25:57;97697.31;;;1.37;100.00
56912;BME280;42800;53.928;27.662;2023-01-31T03:28:26;97700.69;;;1.34;100.00
56912;BME280;42800;53.928;27.662;2023-01-31T03:30:58;97701.16;;;1.12;100.00
56912;BME280;42800;53.928;27.662;2023-01-31T03:33:29;97684.78;;;1.45;100.00
56912;BME280;42800;53.928;27.662;2023-01-31T03:36:03;97688.22;;;1.17;100.00
56912;BME280;42800;53.928;27.662;2023-01-31T03:38:34;97685.50;;;1.05;100.00
56912;BME280;42800;53.928;27.662;2023-01-31T03:41:07;97676.75;;;1.08;100.00
56912;BME280;42800;53.928;27.662;2023-01-31T03:43:38;97663.25;;;0.96;100.00
56912;BME280;42800;53.928;27.662;2023-01-31T03:46:14;97657.13;;;1.36;100.00
56912;BME280;42800;53.928;27.662;2023-01-31T03:48:45;97655.81;;;0.93;100.00
56912;BME280;42800;53.928;27.662;2023-01-31T03:51:17;97643.66;;;1.24;100.00
56912;BME280;42800;53.928;27.662;2023-01-31T03:53:48;97651.34;;;1.50;100.00
56912;BME280;42800;53.928;27.662;2023-01-31T03:56:20;97664.38;;;1.60;100.00
56912;BME280;42800;53.928;27.662;2023-01-31T03:58:50;97665.50;;;1.71;100.00
56912;BME280;42800;53.928;27.662;2023-01-31T04:01:21;97691.53;;;1.51;100.00
56912;BME280;42800;53.928;27.662;2023-01-31T04:03:51;97693.69;;;1.46;100.00
56912;BME280;42800;53.928;27.662;2023-01-31T04:06:20;97687.75;;;1.80;100.00
56912;BME280;42800;53.928;27.662;2023-01-31T04:08:46;97698.47;;;1.77;100.00
56912;BME280;42800;53.928;27.662;2023-01-31T04:11:13;97702.44;;;1.55;100.00
56912;BME280;42800;53.928;27.662;2023-01-31T04:13:40;97702.38;;;1.27;100.00
56912;BME280;42800;53.928;27.662;2023-01-31T04:16:07;97697.25;;;1.62;100.00
56912;BME280;42800;53.928;27.662;2023-01-31T04:18:33;97697.06;;;1.42;100.00
56912;BME280;42800;53.928;27.662;2023-01-31T04:20:59;97709.88;;;1.46;100.00
56912;BME280;42800;53.928;27.662;2023-01-31T04:23:26;97692.56;;;1.47;100.00
56912;BME280;42800;53.928;27.662;2023-01-31T04:25:52;97704.72;;;1.28;100.00
56912;BME280;42800;53.928;27.662;2023-01-31T04:28:19;97690.59;;;1.59;100.00
56912;BME280;42800;53.928;27.662;2023-01-31T04:30:45;97699.97;;;1.50;100.00
56912;BME280;42800;53.928;27.662;2023-01-31T04:33:11;97701.19;;;1.64;100.00
56912;BME280;42800;53.928;27.662;2023-01-31T04:35:39;97714.91;;;1.59;100.00
56912;BME280;42800;53.928;27.662;2023-01-31T04:38:05;97721.66;;;1.65;100.00
56912;BME280;42800;53.928;27.662;2023-01-31T04:40:32;97723.13;;;1.63;100.00
56912;BME280;42800;53.928;27.662;2023-01-31T04:42:58;97732.81;;;1.64;100.00
56912;BME280;42800;53.928;27.662;2023-01-31T04:45:24;97727.22;;;1.32;100.00
56912;BME280;42800;53.928;27.662;2023-01-31T04:47:51;97713.81;;;1.60;100.00
56912;BME280;42800;53.928;27.662;2023-01-31T04:50:17;97718.34;;;1.44;100.00
56912;BME280;42800;53.928;27.662;2023-01-31T04:52:43;97709.38;;;1.68;100.00
56912;BME280;42800;53.928;27.662;2023-01-31T04:55:11;97709.28;;;1.64;100.00
56912;BME280;42800;53.928;27.662;2023-01-31T04:57:38;97722.63;;;1.85;100.00
56912;BME280;42800;53.928;27.662;2023-01-31T05:00:06;97734.16;;;1.70;100.00
56912;BME280;42800;53.928;27.662;2023-01-31T05:02:32;97740.00;;;1.60;100.00
56912;BME280;42800;53.928;27.662;2023-01-31T05:04:58;97743.25;;;1.90;100.00
56912;BME280;42800;53.928;27.662;2023-01-31T05:07:26;97748.00;;;1.69;100.00
56912;BME280;42800;53.928;27.662;2023-01-31T05:09:52;97744.63;;;1.72;100.00
56912;BME280;42800;53.928;27.662;2023-01-31T05:12:18;97755.09;;;1.61;100.00
56912;BME280;42800;53.928;27.662;2023-01-31T05:14:45;97749.91;;;1.68;100.00
56912;BME280;42800;53.928;27.662;2023-01-31T05:17:11;97753.91;;;1.86;100.00
56912;BME280;42800;53.928;27.662;2023-01-31T05:19:37;97769.84;;;1.63;100.00
56912;BME280;42800;53.928;27.662;2023-01-31T05:22:04;97768.66;;;2.01;100.00
56912;BME280;42800;53.928;27.662;2023-01-31T05:24:31;97786.50;;;2.46;100.00
56912;BME280;42800;53.928;27.662;2023-01-31T05:27:00;97800.56;;;2.52;100.00
56912;BME280;42800;53.928;27.662;2023-01-31T05:29:27;97799.00;;;2.51;100.00
56912;BME280;42800;53.928;27.662;2023-01-31T05:31:55;97802.34;;;2.32;100.00
56912;BME280;42800;53.928;27.662;2023-01-31T05:34:22;97803.22;;;2.08;100.00
56912;BME280;42800;53.928;27.662;2023-01-31T05:36:50;97800.09;;;1.94;100.00
56912;BME280;42800;53.928;27.662;2023-01-31T05:39:16;97811.00;;;2.38;100.00
56912;BME280;42800;53.928;27.662;2023-01-31T05:41:43;97821.16;;;2.28;100.00
56912;BME280;42800;53.928;27.662;2023-01-31T05:44:09;97816.06;;;2.39;100.00
56912;BME280;42800;53.928;27.662;2023-01-31T05:46:36;97815.59;;;2.09;100.00
56912;BME280;42800;53.928;27.662;2023-01-31T05:49:03;97821.28;;;2.20;100.00
56912;BME280;42800;53.928;27.662;2023-01-31T05:51:29;97824.75;;;2.32;100.00
56912;BME280;42800;53.928;27.662;2023-01-31T05:53:56;97828.03;;;2.26;100.00
56912;BME280;42800;53.928;27.662;2023-01-31T05:56:23;97822.44;;;2.19;100.00
56912;BME280;42800;53.928;27.662;2023-01-31T05:58:49;97817.88;;;2.07;100.00
56912;BME280;42800;53.928;27.662;2023-01-31T06:01:16;97834.19;;;1.98;100.00
56912;BME280;42800;53.928;27.662;2023-01-31T06:03:43;97835.28;;;2.09;100.00
56912;BME280;42800;53.928;27.662;2023-01-31T06:06:10;97841.84;;;2.49;100.00
56912;BME280;42800;53.928;27.662;2023-01-31T06:08:36;97845.63;;;2.32;100.00
56912;BME280;42800;53.928;27.662;2023-01-31T06:11:03;97850.78;;;2.37;100.00
56912;BME280;42800;53.928;27.662;2023-01-31T06:13:29;97849.72;;;2.54;100.00
56912;BME280;42800;53.928;27.662;2023-01-31T06:15:55;97850.22;;;2.44;100.00
56912;BME280;42800;53.928;27.662;2023-01-31T06:18:22;97860.78;;;2.49;100.00
56912;BME280;42800;53.928;27.662;2023-01-31T06:20:49;97856.59;;;2.51;100.00
56912;BME280;42800;53.928;27.662;2023-01-31T06:23:16;97855.91;;;2.54;100.00
56912;BME280;42800;53.928;27.662;2023-01-31T06:25:42;97866.66;;;2.39;100.00
56912;BME280;42800;53.928;27.662;2023-01-31T06:28:08;97871.31;;;2.66;100.00
56912;BME280;42800;53.928;27.662;2023-01-31T06:30:35;97874.81;;;2.67;100.00
56912;BME280;42800;53.928;27.662;2023-01-31T06:33:01;97870.63;;;2.41;100.00
56912;BME280;42800;53.928;27.662;2023-01-31T06:35:29;97867.53;;;2.55;100.00
56912;BME280;42800;53.928;27.662;2023-01-31T06:37:55;97876.09;;;2.57;100.00
56912;BME280;42800;53.928;27.662;2023-01-31T06:40:22;97863.50;;;2.36;100.00
56912;BME280;42800;53.928;27.662;2023-01-31T06:42:48;97882.66;;;2.84;100.00
56912;BME280;42800;53.928;27.662;2023-01-31T06:45:14;97882.38;;;2.61;100.00
56912;BME280;42800;53.928;27.662;2023-01-31T06:47:41;97878.56;;;2.50;100.00
56912;BME280;42800;53.928;27.662;2023-01-31T06:50:10;97887.28;;;2.83;100.00
56912;BME280;42800;53.928;27.662;2023-01-31T06:52:37;97872.53;;;2.69;100.00
56912;BME280;42800;53.928;27.662;2023-01-31T06:55:04;97872.56;;;2.97;100.00
56912;BME280;42800;53.928;27.662;2023-01-31T06:57:31;97853.34;;;3.02;100.00
56912;BME280;42800;53.928;27.662;2023-01-31T06:59:57;97844.53;;;3.05;100.00
56912;BME280;42800;53.928;27.662;2023-01-31T07:02:23;97833.00;;;2.64;100.00
56912;BME280;42800;53.928;27.662;2023-01-31T07:04:50;97841.75;;;2.73;100.00
56912;BME280;42800;53.928;27.662;2023-01-31T07:07:16;97840.94;;;3.01;100.00
56912;BME280;42800;53.928;27.662;2023-01-31T07:09:42;97843.75;;;3.20;100.00
56912;BME280;42800;53.928;27.662;2023-01-31T07:12:09;97827.44;;;3.17;100.00
56912;BME280;42800;53.928;27.662;2023-01-31T07:14:35;97810.38;;;3.16;100.00
56912;BME280;42800;53.928;27.662;2023-01-31T07:17:02;97802.25;;;3.32;100.00
56912;BME280;42800;53.928;27.662;2023-01-31T07:19:28;97779.09;;;3.35;100.00
56912;BME280;42800;53.928;27.662;2023-01-31T07:21:54;97769.56;;;3.41;100.00
56912;BME280;42800;53.928;27.662;2023-01-31T07:24:21;97761.53;;;3.44;100.00
56912;BME280;42800;53.928;27.662;2023-01-31T07:26:47;97748.16;;;3.51;100.00
56912;BME280;42800;53.928;27.662;2023-01-31T07:29:16;97740.81;;;3.36;100.00
56912;BME280;42800;53.928;27.662;2023-01-31T07:31:43;97750.00;;;3.47;100.00
56912;BME280;42800;53.928;27.662;2023-01-31T07:34:09;97754.16;;;3.61;100.00
56912;BME280;42800;53.928;27.662;2023-01-31T07:36:35;97739.66;;;3.53;100.00
56912;BME280;42800;53.928;27.662;2023-01-31T07:39:02;97740.94;;;3.59;100.00
56912;BME280;42800;53.928;27.662;2023-01-31T07:41:28;97742.19;;;3.62;100.00
56912;BME280;42800;53.928;27.662;2023-01-31T07:43:54;97736.59;;;3.54;100.00
56912;BME280;42800;53.928;27.662;2023-01-31T07:46:20;97745.88;;;3.53;100.00
56912;BME280;42800;53.928;27.662;2023-01-31T07:48:47;97745.97;;;3.41;100.00
56912;BME280;42800;53.928;27.662;2023-01-31T07:51:14;97770.75;;;3.59;100.00
56912;BME280;42800;53.928;27.662;2023-01-31T07:53:40;97759.66;;;3.64;100.00
56912;BME280;42800;53.928;27.662;2023-01-31T07:56:09;97750.69;;;3.80;100.00
56912;BME280;42800;53.928;27.662;2023-01-31T07:58:36;97739.38;;;3.93;100.00
56912;BME280;42800;53.928;27.662;2023-01-31T08:01:03;97710.34;;;3.94;100.00
56912;BME280;42800;53.928;27.662;2023-01-31T08:03:48;97694.28;;;4.05;100.00
56912;BME280;42800;53.928;27.662;2023-01-31T08:06:15;97661.16;;;4.15;100.00
56912;BME280;42800;53.928;27.662;2023-01-31T08:08:42;97624.75;;;4.16;100.00
56912;BME280;42800;53.928;27.662;2023-01-31T08:11:08;97609.00;;;4.02;100.00
56912;BME280;42800;53.928;27.662;2023-01-31T08:13:34;97620.41;;;4.11;100.00
56912;BME280;42800;53.928;27.662;2023-01-31T08:16:01;97605.97;;;4.27;100.00
56912;BME280;42800;53.928;27.662;2023-01-31T08:18:27;97559.72;;;4.19;100.00
56912;BME280;42800;53.928;27.662;2023-01-31T08:20:56;97541.53;;;4.20;100.00
56912;BME280;42800;53.928;27.662;2023-01-31T08:23:22;97529.41;;;4.37;100.00
56912;BME280;42800;53.928;27.662;2023-01-31T08:25:48;97459.75;;;3.95;100.00
56912;BME280;42800;53.928;27.662;2023-01-31T08:28:15;97467.31;;;4.32;100.00
56912;BME280;42800;53.928;27.662;2023-01-31T08:30:42;97399.19;;;4.37;100.00
56912;BME280;42800;53.928;27.662;2023-01-31T08:33:09;97371.44;;;4.51;100.00
56912;BME280;42800;53.928;27.662;2023-01-31T08:35:36;97345.72;;;4.41;100.00
56912;BME280;42800;53.928;27.662;2023-01-31T08:38:03;97331.06;;;4.45;100.00
56912;BME280;42800;53.928;27.662;2023-01-31T08:40:30;97299.78;;;4.55;100.00
56912;BME280;42800;53.928;27.662;2023-01-31T08:42:57;97258.91;;;5.23;100.00
56912;BME280;42800;53.928;27.662;2023-01-31T08:45:25;97148.28;;;5.19;100.00
56912;BME280;42800;53.928;27.662;2023-01-31T08:47:54;97065.78;;;4.80;100.00
56912;BME280;42800;53.928;27.662;2023-01-31T08:50:21;97098.22;;;4.58;100.00
56912;BME280;42800;53.928;27.662;2023-01-31T08:52:51;97159.81;;;4.54;100.00
56912;BME280;42800;53.928;27.662;2023-01-31T08:55:19;97170.00;;;4.64;100.00
56912;BME280;42800;53.928;27.662;2023-01-31T08:57:46;97187.91;;;4.35;100.00
56912;BME280;42800;53.928;27.662;2023-01-31T09:00:13;97197.47;;;4.59;100.00
56912;BME280;42800;53.928;27.662;2023-01-31T09:02:40;97194.38;;;4.20;100.00
56912;BME280;42800;53.928;27.662;2023-01-31T09:05:06;97250.69;;;4.34;100.00
56912;BME280;42800;53.928;27.662;2023-01-31T09:07:33;97285.50;;;3.98;100.00
56912;BME280;42800;53.928;27.662;2023-01-31T09:09:59;97324.69;;;4.31;100.00
56912;BME280;42800;53.928;27.662;2023-01-31T09:12:26;97283.59;;;3.72;100.00
56912;BME280;42800;53.928;27.662;2023-01-31T09:14:52;97356.91;;;4.09;100.00
56912;BME280;42800;53.928;27.662;2023-01-31T09:17:19;97346.28;;;4.23;100.00
56912;BME280;42800;53.928;27.662;2023-01-31T09:19:45;97360.00;;;4.08;100.00
56912;BME280;42800;53.928;27.662;2023-01-31T09:22:12;97345.13;;;4.24;100.00
56912;BME280;42800;53.928;27.662;2023-01-31T09:24:39;97305.97;;;4.22;100.00
56912;BME280;42800;53.928;27.662;2023-01-31T09:27:05;97323.34;;;4.17;100.00
56912;BME280;42800;53.928;27.662;2023-01-31T09:29:32;97363.28;;;4.20;100.00
56912;BME280;42800;53.928;27.662;2023-01-31T09:31:58;97334.59;;;4.19;100.00
56912;BME280;42800;53.928;27.662;2023-01-31T09:34:24;97307.94;;;4.25;100.00
56912;BME280;42800;53.928;27.662;2023-01-31T09:36:51;97321.97;;;4.31;100.00
56912;BME280;42800;53.928;27.662;2023-01-31T09:39:18;97335.47;;;4.27;100.00
56912;BME280;42800;53.928;27.662;2023-01-31T09:41:46;97356.59;;;4.41;100.00
56912;BME280;42800;53.928;27.662;2023-01-31T09:44:18;97383.97;;;4.62;100.00
56912;BME280;42800;53.928;27.662;2023-01-31T09:46:50;97345.88;;;4.52;100.00
56912;BME280;42800;53.928;27.662;2023-01-31T09:49:21;97306.81;;;4.30;100.00
56912;BME280;42800;53.928;27.662;2023-01-31T09:51:53;97315.47;;;4.39;100.00
56912;BME280;42800;53.928;27.662;2023-01-31T09:54:26;97317.13;;;4.47;100.00
56912;BME280;42800;53.928;27.662;2023-01-31T09:56:59;97310.38;;;4.67;100.00
56912;BME280;42800;53.928;27.662;2023-01-31T09:59:31;97266.97;;;4.67;100.00
56912;BME280;42800;53.928;27.662;2023-01-31T10:02:15;97206.81;;;4.65;100.00
56912;BME280;42800;53.928;27.662;2023-01-31T10:04:54;97192.59;;;4.79;100.00
56912;BME280;42800;53.928;27.662;2023-01-31T10:07:27;97150.63;;;4.69;100.00
56912;BME280;42800;53.928;27.662;2023-01-31T10:09:58;97147.94;;;4.73;100.00
56912;BME280;42800;53.928;27.662;2023-01-31T10:12:32;97089.59;;;4.49;100.00
56912;BME280;42800;53.928;27.662;2023-01-31T10:15:05;97120.19;;;4.94;100.00
56912;BME280;42800;53.928;27.662;2023-01-31T10:17:40;97105.19;;;4.59;100.00
56912;BME280;42800;53.928;27.662;2023-01-31T10:20:17;97170.94;;;4.42;100.00
56912;BME280;42800;53.928;27.662;2023-01-31T10:22:46;97237.44;;;4.29;100.00
56912;BME280;42800;53.928;27.662;2023-01-31T10:25:23;97278.75;;;4.15;100.00
56912;BME280;42800;53.928;27.662;2023-01-31T10:27:54;97398.19;;;4.22;100.00
56912;BME280;42800;53.928;27.662;2023-01-31T10:30:25;97479.38;;;4.11;100.00
56912;BME280;42800;53.928;27.662;2023-01-31T10:32:58;97526.16;;;4.05;100.00
56912;BME280;42800;53.928;27.662;2023-01-31T10:35:28;97603.31;;;3.88;100.00
56912;BME280;42800;53.928;27.662;2023-01-31T10:38:02;97682.28;;;3.86;100.00
56912;BME280;42800;53.928;27.662;2023-01-31T10:40:32;97759.72;;;3.84;100.00
56912;BME280;42800;53.928;27.662;2023-01-31T10:43:09;97792.97;;;4.00;100.00
56912;BME280;42800;53.928;27.662;2023-01-31T10:45:37;97823.31;;;4.06;100.00
56912;BME280;42800;53.928;27.662;2023-01-31T10:48:13;97828.94;;;3.97;100.00
56912;BME280;42800;53.928;27.662;2023-01-31T10:50:48;97839.31;;;4.11;100.00
56912;BME280;42800;53.928;27.662;2023-01-31T10:53:40;97810.03;;;4.00;100.00
56912;BME280;42800;53.928;27.662;2023-01-31T10:56:10;97788.81;;;4.06;100.00
56912;BME280;42800;53.928;27.662;2023-01-31T10:58:40;97768.28;;;4.05;100.00
56912;BME280;42800;53.928;27.662;2023-01-31T11:01:08;97742.94;;;3.97;100.00
56912;BME280;42800;53.928;27.662;2023-01-31T11:03:37;97727.81;;;4.16;100.00
56912;BME280;42800;53.928;27.662;2023-01-31T11:06:04;97706.69;;;4.06;100.00
56912;BME280;42800;53.928;27.662;2023-01-31T11:08:34;97697.91;;;4.12;100.00
56912;BME280;42800;53.928;27.662;2023-01-31T11:11:05;97658.44;;;4.15;100.00
56912;BME280;42800;53.928;27.662;2023-01-31T11:13:32;97683.22;;;4.13;100.00
56912;BME280;42800;53.928;27.662;2023-01-31T11:16:00;97719.75;;;4.19;100.00
56912;BME280;42800;53.928;27.662;2023-01-31T11:18:29;97644.78;;;4.31;100.00
56912;BME280;42800;53.928;27.662;2023-01-31T11:20:58;97537.34;;;4.26;100.00
56912;BME280;42800;53.928;27.662;2023-01-31T11:23:27;97538.56;;;4.29;100.00
56912;BME280;42800;53.928;27.662;2023-01-31T11:25:55;97486.63;;;4.27;100.00
56912;BME280;42800;53.928;27.662;2023-01-31T11:28:26;97472.06;;;4.38;100.00
56912;BME280;42800;53.928;27.662;2023-01-31T11:30:54;97402.16;;;4.28;100.00
56912;BME280;42800;53.928;27.662;2023-01-31T11:33:38;97358.84;;;4.09;100.00
56912;BME280;42800;53.928;27.662;2023-01-31T11:36:08;97373.28;;;4.16;100.00
56912;BME280;42800;53.928;27.662;2023-01-31T11:38:35;97337.34;;;4.23;100.00
56912;BME280;42800;53.928;27.662;2023-01-31T11:41:01;97292.81;;;4.24;100.00
56912;BME280;42800;53.928;27.662;2023-01-31T11:43:33;97271.97;;;4.32;100.00
56912;BME280;42800;53.928;27.662;2023-01-31T11:46:00;97291.94;;;4.16;100.00
56912;BME280;42800;53.928;27.662;2023-01-31T11:48:35;97258.41;;;4.32;100.00
56912;BME280;42800;53.928;27.662;2023-01-31T11:51:04;97199.13;;;4.30;100.00
56912;BME280;42800;53.928;27.662;2023-01-31T11:53:37;97190.69;;;4.05;100.00
56912;BME280;42800;53.928;27.662;2023-01-31T11:56:12;97221.88;;;4.22;100.00
56912;BME280;42800;53.928;27.662;2023-01-31T11:58:40;97200.38;;;4.06;100.00
56912;BME280;42800;53.928;27.662;2023-01-31T12:01:14;97234.94;;;4.13;100.00
56912;BME280;42800;53.928;27.662;2023-01-31T12:03:45;97257.75;;;4.08;100.00
56912;BME280;42800;53.928;27.662;2023-01-31T12:06:25;97270.00;;;3.98;100.00
56912;BME280;42800;53.928;27.662;2023-01-31T12:08:53;97272.41;;;4.04;100.00
56912;BME280;42800;53.928;27.662;2023-01-31T12:11:27;97304.06;;;3.96;100.00
56912;BME280;42800;53.928;27.662;2023-01-31T12:14:02;97335.84;;;3.99;100.00
56912;BME280;42800;53.928;27.662;2023-01-31T12:16:36;97355.94;;;4.21;100.00
56912;BME280;42800;53.928;27.662;2023-01-31T12:19:11;97298.94;;;4.17;100.00
56912;BME280;42800;53.928;27.662;2023-01-31T12:21:50;97296.88;;;4.07;100.00
56912;BME280;42800;53.928;27.662;2023-01-31T12:24:26;97339.34;;;3.99;100.00
56912;BME280;42800;53.928;27.662;2023-01-31T12:26:56;97405.69;;;4.06;100.00
56912;BME280;42800;53.928;27.662;2023-01-31T12:29:48;97376.66;;;3.83;100.00
56912;BME280;42800;53.928;27.662;2023-01-31T12:32:39;97421.78;;;3.95;100.00
56912;BME280;42800;53.928;27.662;2023-01-31T12:35:25;97400.81;;;3.92;100.00
56912;BME280;42800;53.928;27.662;2023-01-31T12:38:00;97427.06;;;3.84;100.00
56912;BME280;42800;53.928;27.662;2023-01-31T12:40:36;97408.31;;;3.75;100.00
56912;BME280;42800;53.928;27.662;2023-01-31T12:43:19;97412.06;;;3.67;100.00
56912;BME280;42800;53.928;27.662;2023-01-31T12:46:03;97412.94;;;3.98;100.00
56912;BME280;42800;53.928;27.662;2023-01-31T12:48:47;97398.59;;;3.97;100.00
56912;BME280;42800;53.928;27.662;2023-01-31T12:51:37;97356.53;;;4.07;100.00
56912;BME280;42800;53.928;27.662;2023-01-31T12:54:18;97318.97;;;3.83;100.00
56912;BME280;42800;53.928;27.662;2023-01-31T12:56:57;97322.72;;;3.74;100.00
56912;BME280;42800;53.928;27.662;2023-01-31T12:59:41;97308.75;;;3.72;100.00
56912;BME280;42800;53.928;27.662;2023-01-31T13:02:24;97247.38;;;3.57;100.00
56912;BME280;42800;53.928;27.662;2023-01-31T13:04:57;97251.66;;;3.58;100.00
56912;BME280;42800;53.928;27.662;2023-01-31T13:07:31;97292.88;;;3.71;100.00